createdAt,value
2019-02-06T00:01:46.015Z,16.10
2019-02-06T00:05:14.405Z,16.63
2019-02-06T00:08:33.346Z,14.83
2019-02-06T00:11:56.132Z,14.77
2019-02-06T00:15:19.032Z,15.07
2019-02-06T00:18:41.475Z,14.87
2019-02-06T00:22:05.713Z,14.53
2019-02-06T00:25:28.284Z,15.07
2019-02-06T00:28:50.728Z,13.73
2019-02-06T00:32:13.392Z,13.90
2019-02-06T00:35:36.262Z,14.43
2019-02-06T00:38:58.537Z,13.83
2019-02-06T00:42:21.303Z,13.07
2019-02-06T00:45:51.165Z,14.13
2019-02-06T00:49:13.948Z,14.63
2019-02-06T00:52:36.504Z,13.50
2019-02-06T00:55:59.089Z,13.33
2019-02-06T00:59:21.556Z,14.00
2019-02-06T01:02:44.601Z,14.20
2019-02-06T01:06:07.256Z,13.17
2019-02-06T01:09:29.846Z,12.90
2019-02-06T01:12:52.544Z,12.93
2019-02-06T01:16:15.424Z,13.30
2019-02-06T01:19:38.115Z,13.03
2019-02-06T01:23:00.672Z,14.07
2019-02-06T01:26:27.526Z,12.40
2019-02-06T01:29:49.753Z,12.40
2019-02-06T01:33:12.292Z,13.40
2019-02-06T01:36:35.046Z,12.30
2019-02-06T01:39:57.664Z,12.87
2019-02-06T01:43:20.148Z,12.80
2019-02-06T01:46:42.996Z,13.73
2019-02-06T01:50:07.356Z,13.07
2019-02-06T01:53:30.445Z,12.90
2019-02-06T01:56:53.609Z,12.33
2019-02-06T02:00:21.618Z,11.93
2019-02-06T02:03:44.265Z,11.87
2019-02-06T02:07:06.981Z,12.30
2019-02-06T02:10:29.643Z,12.50
2019-02-06T02:13:52.307Z,12.17
2019-02-06T02:17:14.882Z,12.00
2019-02-06T02:20:37.296Z,13.13
2019-02-06T02:23:59.824Z,12.00
2019-02-06T02:27:22.469Z,13.87
2019-02-06T02:30:48.532Z,12.83
2019-02-06T02:34:10.664Z,13.07
2019-02-06T02:37:32.853Z,13.83
2019-02-06T02:40:55.449Z,12.93
2019-02-06T02:44:18.163Z,12.73
2019-02-06T02:47:40.841Z,13.40
2019-02-06T02:51:03.390Z,13.13
2019-02-06T02:54:26.349Z,13.33
2019-02-06T02:57:49.366Z,13.70
2019-02-06T03:01:29.990Z,12.33
2019-02-06T03:04:57.155Z,13.60
2019-02-06T03:08:19.551Z,14.27
2019-02-06T03:11:42.276Z,13.80
2019-02-06T03:15:05.949Z,14.53
2019-02-06T03:18:28.388Z,15.87
2019-02-06T03:21:50.916Z,14.87
2019-02-06T03:25:13.879Z,16.60
2019-02-06T03:28:36.365Z,14.60
2019-02-06T03:31:58.826Z,15.60
2019-02-06T03:35:21.588Z,16.10
2019-02-06T03:38:44.346Z,15.87
2019-02-06T03:42:06.892Z,18.13
2019-02-06T03:45:29.325Z,16.73
2019-02-06T03:48:52.163Z,16.20
2019-02-06T03:52:15.010Z,18.40
2019-02-06T03:55:37.413Z,16.67
2019-02-06T03:59:00.357Z,14.90
2019-02-06T04:02:22.981Z,16.30
2019-02-06T04:05:46.094Z,17.23
2019-02-06T04:09:09.267Z,17.10
2019-02-06T04:12:31.582Z,18.03
2019-02-06T04:15:54.108Z,17.83
2019-02-06T04:19:16.484Z,19.23
2019-02-06T04:22:38.801Z,21.30
2019-02-06T04:26:01.621Z,21.30
2019-02-06T04:29:24.249Z,19.90
2019-02-06T04:32:46.955Z,22.17
2019-02-06T04:36:09.390Z,21.13
2019-02-06T04:39:32.036Z,21.57
2019-02-06T04:42:54.437Z,23.87
2019-02-06T04:46:17.156Z,22.13
2019-02-06T04:49:39.834Z,24.63
2019-02-06T04:53:02.516Z,22.47
2019-02-06T04:56:25.060Z,23.73
2019-02-06T04:59:48.190Z,23.10
2019-02-06T05:03:10.602Z,26.27
2019-02-06T05:06:32.745Z,27.27
2019-02-06T05:09:54.814Z,24.83
2019-02-06T05:13:17.309Z,25.37
2019-02-06T05:16:40.133Z,24.33
2019-02-06T05:20:04.345Z,25.53
2019-02-06T05:23:26.895Z,26.93
2019-02-06T05:26:49.555Z,25.00
2019-02-06T05:30:12.469Z,27.80
2019-02-06T05:33:35.112Z,26.27
2019-02-06T05:36:57.623Z,29.37
2019-02-06T05:40:20.396Z,30.50
2019-02-06T05:43:42.948Z,32.00
2019-02-06T05:47:05.900Z,32.10
2019-02-06T05:50:28.515Z,34.07
2019-02-06T05:53:51.209Z,35.30
2019-02-06T05:57:14.128Z,33.80
2019-02-06T06:00:41.737Z,34.07
2019-02-06T06:04:04.361Z,36.30
2019-02-06T06:07:26.816Z,35.40
2019-02-06T06:10:49.405Z,37.33
2019-02-06T06:14:11.984Z,36.50
2019-02-06T06:17:34.466Z,37.57
2019-02-06T06:20:57.093Z,37.17
2019-02-06T06:24:19.913Z,38.63
2019-02-06T06:27:43.022Z,37.57
2019-02-06T06:31:05.728Z,38.20
2019-02-06T06:34:28.840Z,39.47
2019-02-06T06:37:59.499Z,40.53
2019-02-06T06:41:16.095Z,41.00
2019-02-06T06:44:38.976Z,44.00
2019-02-06T06:48:01.613Z,41.20
2019-02-06T06:51:24.441Z,41.13
2019-02-06T06:54:47.109Z,41.03
2019-02-06T06:58:10.252Z,42.73
2019-02-06T07:01:33.021Z,39.27
2019-02-06T07:04:55.892Z,38.83
2019-02-06T07:08:18.133Z,39.60
2019-02-06T07:11:40.672Z,40.70
2019-02-06T07:15:03.404Z,39.80
2019-02-06T07:18:26.310Z,38.40
2019-02-06T07:21:48.814Z,38.30
2019-02-06T07:25:11.622Z,36.53
2019-02-06T07:28:34.764Z,37.07
2019-02-06T07:31:56.967Z,38.00
2019-02-06T07:35:19.473Z,34.60
2019-02-06T07:38:42.201Z,35.67
2019-02-06T07:42:04.672Z,32.47
2019-02-06T07:45:27.361Z,34.10
2019-02-06T07:48:49.491Z,32.77
2019-02-06T07:52:12.013Z,34.90
2019-02-06T07:55:34.445Z,34.53
2019-02-06T07:58:56.975Z,33.63
2019-02-06T08:02:19.628Z,33.30
2019-02-06T08:05:42.426Z,31.60
2019-02-06T08:09:08.424Z,32.83
2019-02-06T08:12:30.769Z,30.07
2019-02-06T08:15:53.552Z,30.63
2019-02-06T08:19:15.929Z,30.23
2019-02-06T08:22:38.527Z,30.93
2019-02-06T08:26:01.073Z,29.37
2019-02-06T08:29:23.736Z,29.63
2019-02-06T08:32:46.247Z,29.20
2019-02-06T08:36:08.945Z,30.70
2019-02-06T08:39:31.404Z,30.30
2019-02-06T08:42:53.864Z,28.97
2019-02-06T08:46:16.339Z,30.30
2019-02-06T08:49:38.837Z,28.07
2019-02-06T08:53:01.350Z,27.87
2019-02-06T08:56:24.280Z,27.67
2019-02-06T08:59:47.035Z,28.77
2019-02-06T09:03:10.477Z,27.80
2019-02-06T09:06:33.083Z,27.37
2019-02-06T09:09:55.705Z,27.73
2019-02-06T09:13:19.063Z,28.20
2019-02-06T09:16:42.501Z,26.03
2019-02-06T09:20:07.395Z,26.60
2019-02-06T09:23:29.592Z,25.37
2019-02-06T09:26:52.298Z,26.30
2019-02-06T09:30:17.721Z,26.47
2019-02-06T09:33:40.381Z,23.27
2019-02-06T09:37:05.028Z,24.70
2019-02-06T09:40:28.762Z,24.57
2019-02-06T09:43:51.408Z,24.53
2019-02-06T09:47:13.991Z,23.03
2019-02-06T09:50:37.671Z,21.07
2019-02-06T09:54:00.390Z,21.93
2019-02-06T09:57:22.905Z,21.50
2019-02-06T10:00:45.545Z,21.13
2019-02-06T10:04:07.964Z,21.10
2019-02-06T10:07:30.187Z,21.13
2019-02-06T10:10:53.453Z,21.93
2019-02-06T10:14:16.563Z,19.27
2019-02-06T10:17:39.165Z,19.67
2019-02-06T10:21:01.748Z,23.00
2019-02-06T10:24:24.338Z,23.07
2019-02-06T10:27:46.892Z,21.40
2019-02-06T10:31:09.474Z,21.67
2019-02-06T10:34:32.320Z,21.10
2019-02-06T10:37:55.145Z,21.67
2019-02-06T10:41:17.283Z,20.57
2019-02-06T10:44:40.033Z,20.70
2019-02-06T10:48:02.777Z,19.33
2019-02-06T10:51:25.161Z,20.07
2019-02-06T10:54:47.634Z,18.90
2019-02-06T10:58:10.163Z,18.00
2019-02-06T11:01:33.298Z,16.57
2019-02-06T11:04:56.126Z,17.50
2019-02-06T11:08:18.860Z,17.40
2019-02-06T11:11:41.208Z,17.93
2019-02-06T11:15:05.200Z,15.07
2019-02-06T11:18:28.023Z,14.20
2019-02-06T11:21:50.171Z,14.47
2019-02-06T11:25:31.890Z,14.20
2019-02-06T11:28:54.336Z,13.20
2019-02-06T11:32:16.754Z,13.30
2019-02-06T11:35:39.346Z,14.40
2019-02-06T11:39:01.829Z,14.03
2019-02-06T11:42:24.440Z,13.83
2019-02-06T11:45:47.256Z,14.60
2019-02-06T11:49:10.108Z,13.30
2019-02-06T11:52:32.861Z,12.80
2019-02-06T11:55:56.037Z,12.57
2019-02-06T11:59:18.806Z,16.53
2019-02-06T12:02:41.610Z,13.37
2019-02-06T12:06:04.364Z,13.50
2019-02-06T12:09:26.860Z,12.50
2019-02-06T12:12:49.905Z,13.03
2019-02-06T12:16:12.445Z,11.60
2019-02-06T12:19:34.857Z,11.90
2019-02-06T12:22:57.076Z,15.10
2019-02-06T12:26:19.542Z,13.37
2019-02-06T12:29:42.094Z,12.77
2019-02-06T12:33:05.349Z,13.03
2019-02-06T12:36:28.011Z,11.47
2019-02-06T12:39:51.315Z,13.70
2019-02-06T12:43:13.896Z,11.77
2019-02-06T12:46:36.513Z,11.73
2019-02-06T12:49:59.248Z,14.77
2019-02-06T12:53:23.205Z,12.53
2019-02-06T12:56:45.867Z,11.47
2019-02-06T13:00:15.084Z,13.40
2019-02-06T13:03:37.753Z,11.87
2019-02-06T13:07:00.406Z,11.60
2019-02-06T13:10:33.451Z,11.10
2019-02-06T13:13:47.286Z,10.83
2019-02-06T13:17:10.062Z,10.67
2019-02-06T13:20:32.653Z,11.43
2019-02-06T13:23:54.813Z,11.37
2019-02-06T13:27:17.181Z,11.33
2019-02-06T13:30:39.822Z,11.00
2019-02-06T13:34:02.204Z,10.43
2019-02-06T13:37:24.637Z,12.63
2019-02-06T13:40:47.310Z,10.23
2019-02-06T13:44:09.428Z,9.73
2019-02-06T13:47:32.523Z,9.57
2019-02-06T13:50:55.621Z,9.90
2019-02-06T13:54:18.513Z,10.43
2019-02-06T13:57:41.185Z,11.13
2019-02-06T14:01:05.063Z,10.53
2019-02-06T14:04:27.422Z,10.83
2019-02-06T14:07:50.741Z,10.73
2019-02-06T14:11:13.326Z,11.17
2019-02-06T14:14:35.867Z,12.13
2019-02-06T14:17:58.806Z,11.70
2019-02-06T14:21:21.410Z,11.97
2019-02-06T14:24:57.926Z,12.97
2019-02-06T14:28:44.993Z,12.17
2019-02-06T14:32:59.037Z,12.57
2019-02-06T14:36:39.713Z,13.00
2019-02-06T14:40:15.309Z,13.30
2019-02-06T14:43:47.350Z,13.37
2019-02-06T14:47:50.742Z,13.23
2019-02-06T14:51:38.155Z,13.90
2019-02-06T14:55:42.398Z,12.33
2019-02-06T14:59:36.766Z,12.73
2019-02-06T15:03:25.249Z,12.50
2019-02-06T15:07:44.324Z,12.33
2019-02-06T15:11:21.234Z,12.33
2019-02-06T15:15:04.709Z,11.97
2019-02-06T15:18:52.873Z,11.17
2019-02-06T15:22:39.181Z,11.57
2019-02-06T15:26:21.192Z,11.83
2019-02-06T15:30:12.606Z,12.60
2019-02-06T15:34:09.585Z,12.13
2019-02-06T15:37:47.723Z,12.67
2019-02-06T15:41:40.826Z,12.43
2019-02-06T15:45:17.898Z,12.87
2019-02-06T15:49:08.326Z,11.67
2019-02-06T15:53:13.454Z,12.53
2019-02-06T15:56:59.382Z,14.10
2019-02-06T16:01:15.523Z,12.53
2019-02-06T16:05:13.110Z,13.40
2019-02-06T16:09:01.546Z,11.97
2019-02-06T16:12:47.396Z,12.00
2019-02-06T16:16:50.756Z,13.50
2019-02-06T16:20:46.492Z,12.63
2019-02-06T16:24:44.218Z,12.50
2019-02-06T16:28:43.130Z,14.00
2019-02-06T16:32:36.529Z,12.53
2019-02-06T16:36:31.229Z,12.63
2019-02-06T16:40:18.046Z,12.50
2019-02-06T16:44:12.224Z,13.97
2019-02-06T16:47:59.569Z,13.60
2019-02-06T16:51:43.862Z,13.07
2019-02-06T16:55:30.818Z,13.83
2019-02-06T16:59:04.951Z,13.83
2019-02-06T17:03:13.725Z,13.77
2019-02-06T17:07:01.730Z,12.80
2019-02-06T17:10:59.807Z,14.60
2019-02-06T17:15:04.908Z,15.23
2019-02-06T17:18:52.781Z,14.23
2019-02-06T17:22:29.933Z,14.73
2019-02-06T17:26:34.913Z,13.83
2019-02-06T17:30:45.189Z,14.30
2019-02-06T17:35:04.643Z,15.43
2019-02-06T17:39:01.690Z,15.87
2019-02-06T17:42:42.888Z,14.63
2019-02-06T17:46:26.106Z,14.60
2019-02-06T17:50:11.723Z,16.53
2019-02-06T17:54:05.236Z,14.50
2019-02-06T17:57:28.043Z,15.93
2019-02-06T18:01:04.520Z,15.23
2019-02-06T18:04:30.425Z,16.07
2019-02-06T18:07:52.969Z,16.40
2019-02-06T18:11:16.062Z,18.60
2019-02-06T18:14:38.373Z,17.80
2019-02-06T18:18:02.582Z,16.83
2019-02-06T18:21:24.586Z,18.03
2019-02-06T18:24:47.242Z,16.27
2019-02-06T18:28:11.817Z,17.53
2019-02-06T18:31:33.326Z,16.50
2019-02-06T18:34:55.681Z,16.00
2019-02-06T18:38:18.507Z,15.60
2019-02-06T18:41:41.363Z,14.87
2019-02-06T18:45:05.347Z,14.27
2019-02-06T18:48:28.714Z,15.47
2019-02-06T18:51:51.461Z,13.90
2019-02-06T18:55:14.272Z,15.10
2019-02-06T18:58:36.710Z,15.03
2019-02-06T19:01:59.209Z,15.40
2019-02-06T19:05:24.158Z,17.40
2019-02-06T19:08:46.720Z,14.23
2019-02-06T19:12:09.798Z,13.73
2019-02-06T19:15:32.274Z,15.03
2019-02-06T19:18:55.090Z,12.87
2019-02-06T19:22:17.568Z,13.93
2019-02-06T19:25:40.152Z,16.50
2019-02-06T19:29:02.677Z,12.87
2019-02-06T19:32:25.539Z,13.47
2019-02-06T19:35:48.015Z,13.33
2019-02-06T19:39:10.792Z,14.37
2019-02-06T19:42:33.566Z,14.13
2019-02-06T19:45:55.966Z,14.10
2019-02-06T19:49:18.510Z,13.23
2019-02-06T19:52:41.485Z,14.03
2019-02-06T19:56:04.980Z,13.93
2019-02-06T19:59:27.751Z,14.77
2019-02-06T20:02:51.150Z,13.17
2019-02-06T20:06:30.270Z,12.97
2019-02-06T20:09:52.754Z,14.47
2019-02-06T20:13:15.858Z,13.50
2019-02-06T20:16:38.369Z,15.33
2019-02-06T20:20:00.871Z,14.63
2019-02-06T20:23:23.342Z,13.80
2019-02-06T20:26:45.893Z,14.40
2019-02-06T20:30:12.031Z,14.20
2019-02-06T20:33:34.489Z,14.77
2019-02-06T20:36:57.173Z,14.87
2019-02-06T20:40:22.605Z,16.37
2019-02-06T20:43:45.314Z,15.00
2019-02-06T20:47:07.580Z,13.90
2019-02-06T20:50:31.582Z,13.90
2019-02-06T20:53:54.389Z,13.90
2019-02-06T20:57:16.870Z,14.80
2019-02-06T21:00:39.009Z,13.57
2019-02-06T21:04:01.524Z,12.97
2019-02-06T21:07:24.014Z,14.30
2019-02-06T21:10:46.596Z,16.30
2019-02-06T21:14:09.306Z,14.00
2019-02-06T21:17:32.110Z,14.57
2019-02-06T21:20:54.728Z,13.93
2019-02-06T21:24:17.598Z,14.07
2019-02-06T21:27:40.457Z,15.70
2019-02-06T21:31:03.495Z,14.73
2019-02-06T21:34:26.198Z,13.43
2019-02-06T21:37:49.252Z,13.93
2019-02-06T21:41:12.278Z,13.53
2019-02-06T21:44:35.485Z,13.67
2019-02-06T21:47:58.165Z,14.03
2019-02-06T21:51:20.969Z,13.73
2019-02-06T21:54:43.588Z,14.63
2019-02-06T21:58:06.268Z,14.43
2019-02-06T22:01:28.163Z,13.37
2019-02-06T22:04:50.882Z,13.67
2019-02-06T22:08:13.369Z,14.33
2019-02-06T22:11:35.867Z,13.97
2019-02-06T22:14:58.348Z,13.47
2019-02-06T22:18:20.850Z,13.17
2019-02-06T22:21:43.641Z,13.93
2019-02-06T22:25:06.685Z,14.60
2019-02-06T22:28:29.074Z,14.77
2019-02-06T22:31:51.188Z,13.63
2019-02-06T22:35:13.972Z,13.60
2019-02-06T22:38:36.285Z,13.43
2019-02-06T22:41:58.781Z,13.40
2019-02-06T22:45:23.560Z,14.30
2019-02-06T22:48:46.149Z,13.67
2019-02-06T22:52:12.402Z,13.53
2019-02-06T22:55:35.034Z,14.20
2019-02-06T22:58:57.585Z,13.37
2019-02-06T23:02:20.210Z,13.53
2019-02-06T23:05:42.740Z,13.30
2019-02-06T23:09:07.474Z,13.90
2019-02-06T23:12:30.217Z,13.60
2019-02-06T23:15:53.190Z,12.20
2019-02-06T23:19:15.901Z,13.23
2019-02-06T23:22:38.685Z,13.63
2019-02-06T23:26:01.466Z,13.50
2019-02-06T23:29:23.876Z,13.87
2019-02-06T23:32:46.582Z,13.53
2019-02-06T23:36:09.468Z,14.53
2019-02-06T23:39:31.817Z,12.47
2019-02-06T23:42:55.517Z,13.10
2019-02-06T23:46:18.790Z,12.70
2019-02-06T23:49:41.623Z,12.13
2019-02-06T23:53:04.673Z,12.17
2019-02-06T23:56:27.284Z,13.37
2019-02-06T23:59:50.008Z,12.63
